Time;durP1;ratioP1;P1;durP2;ratioP2;P2;SDS_P1;SDS_P2;PMS_P1;PMS_P2;Temp;Humidity;BMP_temperature;BMP_pressure;BME280_temperature;BME280_humidity;BME280_pressure;Samples;Min_cycle;Max_cycle;Signal;HPM_P1;HPM_P2
2022/11/18 00:01:33;;;;;;;10.38;3.20;;;10.70;91.30;;;;;;5018899;28;20471;-75
2022/11/18 00:04:01;;;;;;;11.43;3.15;;;10.70;91.20;;;;;;5019865;28;20310;-76
2022/11/18 00:06:28;;;;;;;8.75;2.25;;;10.70;91.20;;;;;;5021095;28;20116;-76
2022/11/18 00:08:56;;;;;;;8.02;2.83;;;10.70;91.30;;;;;;5018055;28;20052;-76
2022/11/18 00:14:28;;;;;;;13.13;3.25;;;10.70;91.30;;;;;;5022887;28;20458;-76
2022/11/18 00:17:04;;;;;;;11.27;3.88;;;10.70;91.40;;;;;;5013817;28;20087;-75
2022/11/18 00:19:31;;;;;;;8.85;3.28;;;10.70;91.30;;;;;;5015851;28;20419;-76
2022/11/18 00:21:57;;;;;;;11.73;3.45;;;10.70;91.40;;;;;;5023722;28;20029;-76
2022/11/18 00:24:24;;;;;;;10.43;3.42;;;10.70;91.40;;;;;;5028079;28;20042;-73
2022/11/18 00:26:53;;;;;;;10.40;3.72;;;10.70;91.40;;;;;;5008815;28;20388;-75
2022/11/18 00:29:20;;;;;;;8.65;2.90;;;10.70;91.40;;;;;;5019754;28;20541;-75
2022/11/18 00:31:46;;;;;;;8.20;3.05;;;10.70;91.40;;;;;;5020653;28;20026;-74
2022/11/18 00:34:14;;;;;;;12.00;3.53;;;10.70;91.40;;;;;;5013005;28;20026;-75
2022/11/18 00:36:41;;;;;;;7.57;2.30;;;10.70;91.40;;;;;;5017678;28;20645;-75
2022/11/18 00:39:07;;;;;;;7.70;2.65;;;10.70;91.40;;;;;;5025607;28;20052;-75
2022/11/18 00:44:18;;;;;;;9.05;2.78;;;10.60;91.40;;;;;;5026669;28;20041;-75
2022/11/18 00:46:44;;;;;;;10.43;4.20;;;10.70;91.40;;;;;;5015626;28;20109;-75
2022/11/18 00:49:12;;;;;;;12.98;3.95;;;10.60;91.40;;;;;;5026422;28;20128;-75
2022/11/18 00:51:38;;;;;;;10.13;3.30;;;10.60;91.50;;;;;;5032470;28;20025;-75
2022/11/18 00:54:04;;;;;;;8.05;3.38;;;10.70;91.50;;;;;;5022887;28;20479;-77
2022/11/18 00:56:30;;;;;;;11.05;3.75;;;10.70;91.50;;;;;;5022914;28;20087;-74
2022/11/18 00:58:57;;;;;;;8.32;3.55;;;10.70;91.60;;;;;;5025527;28;20128;-75
2022/11/18 01:01:23;;;;;;;6.78;3.38;;;10.70;91.60;;;;;;5024052;28;20037;-75
2022/11/18 01:03:48;;;;;;;8.93;3.92;;;10.70;91.60;;;;;;5030616;28;20026;-76
2022/11/18 01:06:14;;;;;;;9.70;3.40;;;10.70;91.60;;;;;;5032857;28;20426;-75
2022/11/18 01:08:40;;;;;;;8.93;3.33;;;10.80;91.60;;;;;;5033947;28;20431;-75
2022/11/18 01:13:51;;;;;;;7.72;3.55;;;10.80;91.60;;;;;;5023959;28;20064;-76
2022/11/18 01:16:19;;;;;;;9.85;3.33;;;10.80;91.60;;;;;;5049281;28;20025;-75
2022/11/18 01:18:44;;;;;;;10.05;3.20;;;10.80;91.60;;;;;;5015779;28;20026;-75
2022/11/18 01:21:10;;;;;;;10.00;4.07;;;10.80;91.60;;;;;;5029777;28;20806;-74
2022/11/18 01:23:36;;;;;;;11.20;3.92;;;10.80;91.60;;;;;;5034449;28;20057;-76
2022/11/18 01:26:07;;;;;;;10.48;4.00;;;10.80;91.60;;;;;;5033551;28;20032;-76
2022/11/18 01:28:33;;;;;;;9.75;3.65;;;10.90;91.60;;;;;;5019940;28;20033;-75
2022/11/18 01:31:11;;;;;;;16.67;4.63;;;10.90;91.60;;;;;;5032058;28;20514;-75
2022/11/18 01:33:37;;;;;;;8.68;3.88;;;10.80;91.60;;;;;;5034297;28;20088;-75
2022/11/18 01:36:03;;;;;;;15.40;4.18;;;10.80;91.50;;;;;;5024217;28;20030;-75
2022/11/18 01:38:30;;;;;;;9.00;3.15;;;10.90;91.50;;;;;;5014058;28;20084;-75
2022/11/18 01:40:56;;;;;;;8.70;3.20;;;10.90;91.50;;;;;;5028945;28;20071;-77
2022/11/18 01:43:34;;;;;;;9.65;3.55;;;10.90;91.40;;;;;;5033620;28;20037;-75
2022/11/18 01:46:00;;;;;;;8.73;3.60;;;10.90;91.40;;;;;;5032323;28;20033;-74
2022/11/18 01:48:30;;;;;;;6.97;3.40;;;10.90;91.30;;;;;;5018362;28;20510;-75
2022/11/18 01:51:07;;;;;;;8.93;3.88;;;10.90;91.30;;;;;;5029924;28;20057;-76
2022/11/18 01:53:41;;;;;;;11.02;3.70;;;10.90;91.30;;;;;;5033996;28;20026;-75
2022/11/18 01:56:12;;;;;;;9.98;2.75;;;10.90;91.30;;;;;;5029926;28;20483;-75
2022/11/18 01:58:48;;;;;;;8.45;2.97;;;10.90;91.40;;;;;;5030847;28;20088;-76
2022/11/18 02:01:15;;;;;;;9.57;3.67;;;10.90;91.30;;;;;;5025485;28;20437;-75
2022/11/18 02:03:42;;;;;;;9.95;3.78;;;10.90;91.30;;;;;;5028939;28;20056;-75
2022/11/18 02:06:09;;;;;;;10.05;3.75;;;10.90;91.30;;;;;;5021807;28;20025;-75
2022/11/18 02:08:41;;;;;;;9.95;3.67;;;10.90;91.30;;;;;;5017915;28;20107;-76
2022/11/18 02:11:49;;;;;;;12.45;4.00;;;10.90;91.30;;;;;;5021353;28;20030;-75
2022/11/18 02:13:59;;;;;;;8.30;3.75;;;10.90;91.30;;;;;;5012399;28;20030;-74
2022/11/18 02:16:50;;;;;;;9.43;3.53;;;10.90;91.30;;;;;;5017502;28;20017;-75
2022/11/18 02:19:45;;;;;;;13.23;3.50;;;10.90;91.30;;;;;;5015235;28;20038;-75
2022/11/18 02:22:30;;;;;;;9.93;3.65;;;10.90;91.40;;;;;;5016333;28;20036;-75
2022/11/18 02:25:23;;;;;;;10.18;4.45;;;10.90;91.40;;;;;;5015630;28;20053;-75
2022/11/18 02:28:11;;;;;;;8.18;4.13;;;10.90;91.40;;;;;;5026724;28;20033;-76
2022/11/18 02:31:29;;;;;;;11.63;4.53;;;10.90;91.40;;;;;;5017270;28;20080;-76
2022/11/18 02:34:13;;;;;;;11.50;3.95;;;10.80;91.40;;;;;;5023701;28;20049;-75
2022/11/18 02:36:50;;;;;;;10.90;3.97;;;10.80;91.40;;;;;;5029370;28;20025;-74
2022/11/18 02:39:23;;;;;;;9.43;4.10;;;10.80;91.50;;;;;;5031299;28;20041;-75
2022/11/18 02:41:52;;;;;;;15.13;3.35;;;10.80;91.60;;;;;;5014316;28;20021;-74
2022/11/18 02:44:21;;;;;;;9.00;3.45;;;10.80;91.60;;;;;;5030274;28;20491;-76
2022/11/18 02:46:52;;;;;;;14.18;3.65;;;10.80;91.60;;;;;;5022326;28;20069;-75
2022/11/18 02:49:24;;;;;;;9.25;3.70;;;10.80;91.60;;;;;;5029990;28;20070;-74
2022/11/18 02:51:52;;;;;;;8.32;3.40;;;10.80;91.60;;;;;;5021719;28;20555;-76
2022/11/18 02:54:19;;;;;;;9.43;3.63;;;10.80;91.60;;;;;;5025793;28;20022;-76
2022/11/18 02:56:46;;;;;;;10.00;3.38;;;10.80;91.70;;;;;;5009688;28;20790;-75
2022/11/18 02:59:17;;;;;;;11.18;3.50;;;10.80;91.80;;;;;;5029052;28;20068;-75
2022/11/18 03:01:43;;;;;;;11.10;3.58;;;10.80;92.00;;;;;;5017950;28;20030;-75
2022/11/18 03:04:10;;;;;;;10.38;3.53;;;10.80;92.00;;;;;;5024208;28;20020;-75
2022/11/18 03:06:52;;;;;;;10.55;3.72;;;10.80;92.00;;;;;;5017645;28;20030;-75
2022/11/18 03:09:43;;;;;;;11.25;3.72;;;10.80;92.10;;;;;;5021600;28;20022;-74
2022/11/18 03:12:23;;;;;;;7.82;3.90;;;10.80;92.10;;;;;;5011743;28;20064;-76
2022/11/18 03:15:13;;;;;;;7.45;3.28;;;10.80;92.10;;;;;;5017570;28;20056;-74
2022/11/18 03:17:57;;;;;;;;;;;10.80;92.10;;;;;;5012223;28;20034;-75
2022/11/18 03:20:35;;;;;;;9.68;3.50;;;10.90;92.10;;;;;;5020644;28;19986;-76
2022/11/18 03:23:11;;;;;;;8.63;3.38;;;10.80;92.10;;;;;;5022540;28;20026;-75
2022/11/18 03:25:50;;;;;;;11.15;3.55;;;10.80;92.20;;;;;;5022726;28;20060;-74
2022/11/18 03:28:39;;;;;;;8.55;3.42;;;10.80;92.30;;;;;;5010801;28;20014;-75
2022/11/18 03:31:08;;;;;;;11.00;3.45;;;10.80;92.30;;;;;;5020118;28;20049;-75
2022/11/18 03:33:40;;;;;;;7.88;3.60;;;10.90;92.30;;;;;;5027930;28;20018;-75
2022/11/18 03:36:08;;;;;;;13.70;4.68;;;10.90;92.30;;;;;;5017875;28;20574;-75
2022/11/18 03:38:38;;;;;;;12.40;3.55;;;10.90;92.30;;;;;;5024053;28;20041;-75
2022/11/18 03:41:07;;;;;;;11.30;4.10;;;10.90;92.30;;;;;;5020899;28;20033;-75
2022/11/18 03:43:39;;;;;;;9.60;3.92;;;11.00;92.30;;;;;;5016117;28;20021;-75
2022/11/18 03:46:11;;;;;;;10.48;3.47;;;11.00;92.30;;;;;;5026605;28;20316;-74
2022/11/18 03:48:42;;;;;;;11.30;3.50;;;11.00;92.30;;;;;;5020720;28;20022;-75
2022/11/18 03:51:13;;;;;;;9.88;3.60;;;11.00;92.30;;;;;;5022220;28;20034;-75
2022/11/18 03:53:44;;;;;;;6.32;3.70;;;11.00;92.30;;;;;;5007783;28;20029;-75
2022/11/18 03:56:20;;;;;;;9.50;3.58;;;11.00;92.30;;;;;;5024565;28;20018;-76
2022/11/18 03:58:49;;;;;;;10.27;3.20;;;11.00;92.40;;;;;;5015820;28;20088;-75
2022/11/18 04:01:24;;;;;;;7.05;3.53;;;11.10;92.40;;;;;;5025435;28;20097;-75
2022/11/18 04:03:50;;;;;;;8.13;3.40;;;11.10;92.40;;;;;;5024046;28;20029;-77
2022/11/18 04:07:10;;;;;;;10.13;3.80;;;11.00;92.40;;;;;;5022111;28;20587;-77
2022/11/18 04:09:46;;;;;;;11.60;4.15;;;11.00;92.50;;;;;;5046422;28;20037;-75
2022/11/18 04:12:17;;;;;;;8.48;4.00;;;11.00;92.40;;;;;;5017021;28;20050;-75
2022/11/18 04:14:44;;;;;;;14.80;3.80;;;11.00;92.50;;;;;;5012344;28;20017;-75
2022/11/18 04:17:13;;;;;;;10.95;4.60;;;11.00;92.50;;;;;;5017690;28;20028;-75
2022/11/18 04:19:39;;;;;;;9.82;4.47;;;11.00;92.60;;;;;;5020702;28;20032;-75
2022/11/18 04:22:05;;;;;;;9.55;3.50;;;11.10;92.60;;;;;;5028076;28;20550;-74
2022/11/18 04:24:31;;;;;;;11.95;4.43;;;11.10;92.60;;;;;;5015851;28;20050;-74
2022/11/18 04:26:57;;;;;;;10.32;4.70;;;11.10;92.50;;;;;;5023883;28;20080;-75
2022/11/18 04:29:22;;;;;;;9.52;3.40;;;11.10;92.60;;;;;;5016752;28;20159;-75
2022/11/18 04:31:48;;;;;;;7.40;4.50;;;11.10;92.60;;;;;;5022480;28;20500;-74
2022/11/18 04:34:17;;;;;;;10.27;4.78;;;11.10;92.60;;;;;;5022379;28;20064;-74
2022/11/18 04:36:42;;;;;;;12.95;4.07;;;11.10;92.60;;;;;;5021869;28;20051;-75
2022/11/18 04:39:08;;;;;;;9.05;4.00;;;11.20;92.60;;;;;;5023360;28;20022;-75
2022/11/18 04:44:18;;;;;;;9.40;4.35;;;11.20;92.60;;;;;;5023528;28;20129;-76
2022/11/18 04:46:44;;;;;;;11.52;4.03;;;11.20;92.50;;;;;;5019407;28;20097;-76
2022/11/18 04:49:12;;;;;;;10.18;4.47;;;11.20;92.60;;;;;;5025655;28;20048;-73
2022/11/18 04:51:41;;;;;;;14.55;4.88;;;11.10;92.60;;;;;;5019691;28;20061;-75
2022/11/18 04:54:08;;;;;;;10.60;4.82;;;11.10;92.60;;;;;;5024095;28;20025;-75
2022/11/18 04:56:34;;;;;;;11.20;4.13;;;11.20;92.60;;;;;;5024415;28;20026;-75
2022/11/18 04:59:00;;;;;;;11.15;4.28;;;11.20;92.60;;;;;;5015313;28;20763;-75
2022/11/18 05:01:27;;;;;;;10.02;4.60;;;11.10;92.60;;;;;;5018689;28;20120;-75
2022/11/18 05:03:53;;;;;;;14.23;5.10;;;11.10;92.70;;;;;;5019954;28;20042;-74
2022/11/18 05:06:19;;;;;;;9.23;3.67;;;11.10;92.80;;;;;;5010992;28;20076;-75
2022/11/18 05:08:45;;;;;;;10.32;3.95;;;11.10;92.80;;;;;;5023180;28;20034;-75
2022/11/18 05:13:55;;;;;;;9.50;3.95;;;11.10;92.80;;;;;;5027363;28;20399;-75
2022/11/18 05:16:20;;;;;;;8.35;3.88;;;11.10;92.80;;;;;;5014405;28;20116;-75
2022/11/18 05:18:46;;;;;;;14.00;5.05;;;11.20;92.80;;;;;;5027664;28;20064;-75
2022/11/18 05:21:12;;;;;;;8.63;3.90;;;11.20;92.80;;;;;;5016096;28;20081;-76
2022/11/18 05:23:37;;;;;;;9.30;4.40;;;11.20;92.80;;;;;;5020331;28;20054;-74
2022/11/18 05:26:08;;;;;;;7.05;3.00;;;11.10;92.80;;;;;;5016263;28;20458;-75
2022/11/18 05:28:34;;;;;;;10.95;4.28;;;11.10;92.80;;;;;;5016661;28;20088;-75
2022/11/18 05:31:05;;;;;;;8.85;4.43;;;11.10;93.20;;;;;;5008926;28;20042;-76
2022/11/18 05:33:30;;;;;;;9.77;5.85;;;11.10;92.90;;;;;;5022177;28;20050;-75
2022/11/18 05:35:56;;;;;;;10.75;5.00;;;11.20;92.90;;;;;;5022228;28;20072;-76
2022/11/18 05:38:21;;;;;;;11.25;4.65;;;11.20;92.90;;;;;;5023275;28;20017;-75
2022/11/18 05:40:48;;;;;;;10.02;4.75;;;11.20;92.90;;;;;;5019359;28;20038;-74
2022/11/18 05:43:14;;;;;;;8.18;4.65;;;11.20;92.90;;;;;;5019291;28;20056;-76
2022/11/18 05:45:42;;;;;;;11.55;5.05;;;11.20;92.90;;;;;;5029562;28;20053;-75
2022/11/18 05:48:07;;;;;;;13.15;5.50;;;11.10;92.90;;;;;;5025742;28;20028;-76
2022/11/18 05:50:35;;;;;;;7.97;4.57;;;11.10;93.00;;;;;;5033437;28;20033;-75
2022/11/18 05:53:02;;;;;;;8.48;4.38;;;11.10;93.00;;;;;;5030355;28;20533;-75
2022/11/18 05:56:03;;;;;;;10.73;5.55;;;11.10;93.00;;;;;;5027161;28;20131;-74
2022/11/18 05:58:29;;;;;;;15.00;5.35;;;11.10;93.00;;;;;;5020825;28;20472;-75
2022/11/18 06:00:59;;;;;;;10.73;4.85;;;11.20;93.00;;;;;;5019430;28;20084;-75
2022/11/18 06:03:26;;;;;;;;;;;11.20;92.90;;;;;;5020430;28;20037;-75
2022/11/18 06:05:56;;;;;;;11.00;4.80;;;11.20;92.90;;;;;;5012645;28;20303;-75
2022/11/18 06:08:25;;;;;;;10.85;4.47;;;11.20;92.80;;;;;;5021031;28;20060;-75
2022/11/18 06:10:52;;;;;;;7.65;4.32;;;11.10;92.70;;;;;;5027842;28;20030;-76
2022/11/18 06:13:41;;;;;;;12.63;6.22;;;11.10;92.70;;;;;;5016589;28;20075;-74
2022/11/18 06:16:07;;;;;;;7.32;4.68;;;11.10;93.10;;;;;;5014919;28;20020;-76
2022/11/18 06:18:34;;;;;;;11.68;4.55;;;11.10;92.70;;;;;;5020727;28;20029;-76
2022/11/18 06:21:03;;;;;;;12.23;4.65;;;11.10;92.80;;;;;;5018715;28;20932;-75
2022/11/18 06:23:32;;;;;;;11.02;5.63;;;11.10;92.70;;;;;;5017361;28;20029;-75
2022/11/18 06:25:58;;;;;;;13.38;6.05;;;11.00;92.70;;;;;;5022227;28;20029;-75
2022/11/18 06:28:25;;;;;;;9.55;4.93;;;11.00;92.70;;;;;;5019388;28;20029;-75
2022/11/18 06:30:50;;;;;;;8.23;4.53;;;11.00;92.70;;;;;;5021941;28;20091;-74
2022/11/18 06:33:16;;;;;;;13.38;5.93;;;11.00;92.60;;;;;;5017239;28;20116;-76
2022/11/18 06:35:43;;;;;;;13.77;5.38;;;10.90;92.60;;;;;;5019933;28;20026;-78
2022/11/18 06:38:09;;;;;;;11.80;5.60;;;10.90;92.70;;;;;;5018409;28;20418;-75
2022/11/18 06:40:36;;;;;;;12.60;6.30;;;10.90;92.80;;;;;;5021549;28;20769;-79
2022/11/18 06:48:50;;;;;;;10.93;5.65;;;10.80;93.00;;;;;;5014210;28;20117;-75
2022/11/18 06:51:19;;;;;;;9.35;5.18;;;10.80;93.00;;;;;;5025142;28;20037;-77
2022/11/18 06:53:45;;;;;;;12.60;5.22;;;10.80;92.90;;;;;;5018380;28;20034;-75
2022/11/18 06:56:13;;;;;;;11.90;6.28;;;10.70;93.00;;;;;;5022552;28;20387;-76
2022/11/18 06:58:39;;;;;;;8.70;5.20;;;10.70;93.00;;;;;;5017909;28;20484;-76
2022/11/18 07:01:25;;;;;;;10.55;4.80;;;10.70;93.00;;;;;;5019510;28;20021;-75
2022/11/18 07:03:51;;;;;;;9.98;4.82;;;10.70;93.10;;;;;;5017471;28;20093;-76
2022/11/18 07:06:20;;;;;;;11.27;5.05;;;10.70;93.10;;;;;;5027872;28;20390;-75
2022/11/18 07:08:46;;;;;;;10.93;5.03;;;10.70;93.10;;;;;;5024916;28;20059;-76
2022/11/18 07:11:15;;;;;;;10.32;4.63;;;10.70;93.10;;;;;;5018574;28;20650;-75
2022/11/18 07:13:41;;;;;;;8.75;4.80;;;10.70;93.10;;;;;;5023683;28;20033;-74
2022/11/18 07:16:15;;;;;;;11.18;5.70;;;10.70;93.10;;;;;;5018944;28;20554;-76
2022/11/18 07:18:42;;;;;;;9.68;4.55;;;10.70;93.10;;;;;;5013550;28;20037;-74
2022/11/18 07:21:13;;;;;;;15.35;6.03;;;10.70;93.00;;;;;;5005989;28;20106;-76
2022/11/18 07:23:39;;;;;;;11.38;5.18;;;10.70;93.00;;;;;;5021038;28;20041;-74
2022/11/18 07:26:05;;;;;;;12.65;5.53;;;10.80;93.00;;;;;;5022966;28;20041;-74
2022/11/18 07:28:31;;;;;;;10.98;5.32;;;10.80;93.10;;;;;;5023294;28;20381;-74
2022/11/18 07:31:01;;;;;;;14.15;5.97;;;10.80;93.10;;;;;;5018301;28;20052;-75
2022/11/18 07:33:27;;;;;;;16.33;6.07;;;10.70;93.10;;;;;;5026286;28;20037;-75
2022/11/18 07:35:52;;;;;;;10.52;5.47;;;10.80;93.20;;;;;;5024524;28;20966;-75
2022/11/18 07:38:18;;;;;;;13.02;5.10;;;10.80;93.30;;;;;;5024171;28;20029;-75
2022/11/18 07:40:44;;;;;;;7.63;4.20;;;10.90;93.30;;;;;;5016773;28;20108;-75
2022/11/18 07:43:09;;;;;;;13.20;5.07;;;10.90;93.10;;;;;;5024390;28;20620;-76
2022/11/18 07:45:35;;;;;;;10.75;4.63;;;11.00;93.30;;;;;;5016978;28;20502;-74
2022/11/18 07:48:01;;;;;;;12.55;4.68;;;11.20;93.10;;;;;;5015436;28;20041;-76
2022/11/18 07:50:26;;;;;;;11.30;4.95;;;11.30;92.90;;;;;;5019692;28;20040;-75
2022/11/18 07:52:55;;;;;;;11.45;5.50;;;11.20;92.40;;;;;;5021958;28;20030;-76
2022/11/18 07:55:21;;;;;;;13.20;5.85;;;11.20;92.40;;;;;;5007814;28;20093;-75
2022/11/18 07:57:46;;;;;;;16.77;6.10;;;11.10;92.50;;;;;;5014593;28;20491;-77
2022/11/18 08:00:13;;;;;;;11.90;5.10;;;11.00;92.60;;;;;;5028696;28;20488;-76
2022/11/18 08:02:39;;;;;;;10.82;5.28;;;11.10;93.10;;;;;;5028425;28;20034;-75
2022/11/18 08:05:06;;;;;;;10.93;5.32;;;11.20;92.60;;;;;;5017792;28;20061;-77
2022/11/18 08:07:32;;;;;;;13.63;5.22;;;11.30;92.50;;;;;;5019871;28;20018;-76
2022/11/18 08:09:58;;;;;;;12.82;5.60;;;11.50;92.30;;;;;;5020272;28;20079;-74
2022/11/18 08:12:23;;;;;;;9.15;4.28;;;11.70;92.00;;;;;;5025202;28;20025;-73
2022/11/18 08:14:49;;;;;;;10.52;4.40;;;12.00;91.50;;;;;;5027964;28;20013;-73
2022/11/18 08:17:15;;;;;;;9.02;4.43;;;12.30;90.60;;;;;;5028762;28;20021;-74
2022/11/18 08:19:40;;;;;;;8.10;3.75;;;12.50;90.30;;;;;;5021656;28;20553;-74
2022/11/18 08:22:06;;;;;;;9.00;4.10;;;12.70;89.40;;;;;;5024258;28;20045;-74
2022/11/18 08:24:31;;;;;;;9.05;3.90;;;12.90;87.10;;;;;;5025540;28;20052;-75
2022/11/18 08:26:57;;;;;;;9.70;3.60;;;13.10;86.90;;;;;;5018756;28;20075;-75
2022/11/18 08:29:23;;;;;;;13.73;4.50;;;13.50;86.00;;;;;;5024316;28;20013;-74
2022/11/18 08:31:48;;;;;;;7.93;3.85;;;13.80;83.90;;;;;;5013951;28;20040;-74
2022/11/18 08:34:15;;;;;;;9.40;4.47;;;14.10;82.60;;;;;;5026678;28;20029;-75
2022/11/18 08:36:40;;;;;;;6.65;3.20;;;14.30;81.30;;;;;;5006826;28;20022;-73
2022/11/18 08:39:10;;;;;;;9.18;3.95;;;14.60;80.30;;;;;;5024786;28;20018;-73
2022/11/18 08:41:41;;;;;;;6.93;3.10;;;14.80;79.20;;;;;;5024690;28;20024;-72
2022/11/18 08:44:12;;;;;;;7.47;3.15;;;14.90;78.00;;;;;;5018569;28;20080;-74
2022/11/18 08:46:39;;;;;;;9.35;3.90;;;14.80;77.40;;;;;;5012143;28;20017;-72
2022/11/18 08:49:04;;;;;;;13.60;3.90;;;14.50;78.00;;;;;;5027309;28;20025;-72
2022/11/18 08:51:30;;;;;;;9.13;3.72;;;14.30;78.90;;;;;;5020234;28;20038;-73
2022/11/18 08:53:56;;;;;;;9.23;4.32;;;14.10;79.20;;;;;;5019361;28;20448;-72
2022/11/18 08:56:23;;;;;;;10.95;3.42;;;13.90;79.80;;;;;;5024974;28;20033;-74
2022/11/18 08:58:49;;;;;;;9.95;3.92;;;13.70;80.40;;;;;;5021671;28;20109;-72
2022/11/18 09:01:15;;;;;;;7.88;3.47;;;13.50;80.80;;;;;;5010688;28;20101;-74
2022/11/18 09:03:40;;;;;;;9.10;3.67;;;13.40;82.70;;;;;;5015878;28;20018;-74
2022/11/18 09:06:08;;;;;;;12.63;4.60;;;13.40;83.80;;;;;;5016649;28;20057;-73
2022/11/18 09:08:38;;;;;;;5.75;2.90;;;13.50;84.00;;;;;;5028983;28;20091;-72
2022/11/18 09:11:06;;;;;;;7.72;3.97;;;13.70;82.70;;;;;;5020646;28;20108;-74
2022/11/18 09:13:31;;;;;;;9.90;4.18;;;13.90;82.00;;;;;;5019621;28;20468;-73
2022/11/18 09:16:00;;;;;;;9.77;3.90;;;14.30;81.80;;;;;;5022179;28;20037;-73
2022/11/18 09:18:26;;;;;;;9.02;2.97;;;14.90;80.30;;;;;;5018771;28;20175;-72
2022/11/18 09:21:01;;;;;;;10.63;3.90;;;15.20;76.70;;;;;;5021802;28;20137;-73
2022/11/18 09:23:26;;;;;;;7.13;3.33;;;15.20;76.30;;;;;;5012102;28;20045;-73
2022/11/18 09:26:18;;;;;;;8.73;3.55;;;15.20;76.30;;;;;;5015742;28;20037;-72
2022/11/18 09:28:43;;;;;;;9.13;3.40;;;15.60;74.70;;;;;;5017472;28;20021;-74
2022/11/18 09:31:12;;;;;;;7.55;3.55;;;15.50;73.80;;;;;;5024253;28;20033;-72
2022/11/18 09:33:38;;;;;;;7.60;3.22;;;15.30;75.10;;;;;;5024105;28;20025;-73
2022/11/18 09:36:10;;;;;;;10.75;3.67;;;15.30;74.60;;;;;;5028800;28;20018;-72
2022/11/18 09:38:36;;;;;;;7.82;3.22;;;15.10;74.20;;;;;;5024253;28;20041;-74
2022/11/18 09:41:23;;;;;;;8.68;3.20;;;14.90;74.70;;;;;;5022081;28;20045;-73
2022/11/18 09:44:09;;;;;;;8.00;3.03;;;14.60;75.90;;;;;;5023343;28;20104;-72
2022/11/18 09:47:03;;;;;;;12.57;3.80;;;14.50;76.80;;;;;;5023058;28;20045;-73
2022/11/18 09:49:37;;;;;;;9.73;3.22;;;14.40;77.30;;;;;;5030532;28;20033;-72
2022/11/18 09:52:30;;;;;;;7.57;2.33;;;14.20;77.80;;;;;;5024348;28;20138;-74
2022/11/18 09:54:57;;;;;;;7.00;2.72;;;14.10;78.30;;;;;;5017602;28;20021;-74
2022/11/18 09:57:27;;;;;;;12.60;4.15;;;13.90;78.30;;;;;;5021184;28;20029;-76
2022/11/18 09:59:55;;;;;;;8.23;3.72;;;13.70;78.30;;;;;;5014041;28;20032;-75
2022/11/18 10:02:39;;;;;;;8.82;2.95;;;13.60;78.80;;;;;;5016832;28;20072;-75
2022/11/18 10:05:21;;;;;;;10.07;3.45;;;13.50;79.80;;;;;;5021132;28;20606;-74
2022/11/18 10:08:22;;;;;;;8.95;3.55;;;13.40;80.30;;;;;;5017756;28;20523;-75
2022/11/18 10:11:14;;;;;;;10.40;3.45;;;13.30;80.50;;;;;;5014792;28;20143;-74
2022/11/18 10:14:01;;;;;;;13.63;4.60;;;13.20;81.80;;;;;;5019873;28;20029;-75
2022/11/18 10:17:15;;;;;;;9.50;4.15;;;13.20;81.20;;;;;;5024287;28;20029;-74
2022/11/18 10:19:49;;;;;;;10.82;4.30;;;13.20;81.90;;;;;;4999462;28;20469;-73
2022/11/18 10:22:28;;;;;;;14.57;4.22;;;13.10;82.00;;;;;;5004875;28;20077;-74
2022/11/18 10:24:56;;;;;;;8.57;3.83;;;13.10;81.80;;;;;;5008690;28;20037;-75
2022/11/18 10:27:36;;;;;;;13.45;3.60;;;13.10;82.00;;;;;;5006746;28;20388;-76
2022/11/18 10:30:06;;;;;;;10.15;4.38;;;13.00;82.30;;;;;;5010467;28;20040;-75
2022/11/18 10:32:32;;;;;;;7.45;3.67;;;13.10;82.60;;;;;;5022547;28;20029;-74
2022/11/18 10:34:58;;;;;;;5.50;2.75;;;13.10;82.70;;;;;;5022119;28;20080;-75
2022/11/18 10:37:35;;;;;;;9.23;3.67;;;13.20;82.90;;;;;;5021454;28;20021;-74
2022/11/18 10:40:04;;;;;;;9.05;4.32;;;13.40;82.30;;;;;;5020725;28;20045;-75
2022/11/18 10:42:47;;;;;;;9.20;3.70;;;13.50;82.00;;;;;;5028090;28;20026;-74
2022/11/18 10:45:21;;;;;;;10.90;4.00;;;13.60;81.20;;;;;;5011228;28;20037;-74
2022/11/18 10:48:01;;;;;;;8.73;3.30;;;13.60;80.80;;;;;;5022771;28;20037;-75
2022/11/18 10:50:38;;;;;;;11.07;3.63;;;13.70;80.80;;;;;;5023733;28;20149;-75
2022/11/18 10:53:24;;;;;;;10.00;2.67;;;13.70;80.70;;;;;;5023983;28;20029;-75
2022/11/18 10:56:01;;;;;;;10.10;3.53;;;13.80;80.80;;;;;;5012704;28;20030;-74
2022/11/18 10:58:29;;;;;;;4.40;1.90;;;13.80;81.10;;;;;;5022972;28;20030;-75
2022/11/18 11:01:21;;;;;;;12.85;3.70;;;14.00;81.60;;;;;;5027265;28;20396;-75
2022/11/18 11:03:55;;;;;;;10.35;4.35;;;14.00;81.10;;;;;;5018647;28;20026;-75
2022/11/18 11:06:30;;;;;;;10.63;3.75;;;14.10;79.80;;;;;;5009991;28;20057;-75
2022/11/18 11:09:13;;;;;;;7.05;2.63;;;14.10;80.40;;;;;;5026587;28;20017;-75
2022/11/18 11:12:00;;;;;;;9.20;3.03;;;14.00;80.00;;;;;;5010708;28;20048;-75
2022/11/18 11:14:40;;;;;;;6.53;3.05;;;14.00;80.30;;;;;;5019831;28;20034;-75
2022/11/18 11:17:14;;;;;;;10.10;3.83;;;14.10;80.60;;;;;;5015103;28;20040;-75
2022/11/18 11:19:52;;;;;;;7.90;3.53;;;14.20;81.00;;;;;;5027713;28;20518;-74
2022/11/18 11:22:18;;;;;;;8.13;3.20;;;14.40;80.20;;;;;;5012879;28;20018;-75
2022/11/18 11:24:44;;;;;;;5.85;3.13;;;14.40;79.60;;;;;;5024853;28;20344;-75
2022/11/18 11:27:23;;;;;;;7.65;3.05;;;14.30;79.30;;;;;;5015475;28;20045;-76
2022/11/18 11:30:08;;;;;;;8.23;3.67;;;14.10;79.40;;;;;;5023491;28;20037;-74
2022/11/18 11:32:55;;;;;;;8.88;3.15;;;13.90;80.30;;;;;;5009349;28;20435;-75
2022/11/18 11:35:41;;;;;;;6.95;2.47;;;13.80;81.20;;;;;;5027368;28;20036;-75
2022/11/18 11:38:16;;;;;;;12.00;3.95;;;13.70;81.50;;;;;;5027761;28;20021;-75
2022/11/18 11:41:06;;;;;;;11.15;4.15;;;13.60;81.20;;;;;;5023638;28;20116;-75
2022/11/18 11:43:46;;;;;;;10.38;3.70;;;13.70;81.80;;;;;;5013239;28;20017;-75
2022/11/18 11:46:27;;;;;;;;;;;13.60;81.70;;;;;;5009081;28;20040;-75
2022/11/18 11:49:03;;;;;;;10.75;3.88;;;13.60;82.90;;;;;;5019694;28;19909;-75
2022/11/18 11:51:41;;;;;;;11.95;3.92;;;13.60;82.90;;;;;;5028290;28;20037;-75
2022/11/18 11:54:34;;;;;;;9.73;3.78;;;13.90;82.70;;;;;;5018517;28;20087;-74
2022/11/18 11:57:11;;;;;;;5.40;2.40;;;14.10;80.90;;;;;;5006619;28;20445;-75
2022/11/18 11:59:58;;;;;;;9.00;4.10;;;14.30;82.00;;;;;;5017987;28;20033;-75
2022/11/18 12:02:46;;;;;;;9.35;4.07;;;14.30;79.50;;;;;;5022722;28;20030;-75
2022/11/18 12:05:38;;;;;;;7.93;3.25;;;14.30;79.40;;;;;;5023781;28;20116;-74
2022/11/18 12:08:11;;;;;;;9.63;3.25;;;14.30;79.90;;;;;;5021937;28;20036;-75
2022/11/18 12:10:58;;;;;;;13.88;3.20;;;14.10;79.20;;;;;;5020406;28;20033;-74
2022/11/18 12:13:34;;;;;;;9.35;3.72;;;14.10;79.40;;;;;;5008094;28;20041;-74
2022/11/18 12:16:18;;;;;;;11.02;3.53;;;14.10;79.40;;;;;;5018838;28;20022;-74
2022/11/18 12:19:16;;;;;;;9.23;3.55;;;14.00;80.20;;;;;;5010244;28;20030;-75
2022/11/18 12:21:44;;;;;;;7.18;2.80;;;13.90;80.60;;;;;;5015740;28;20060;-75
2022/11/18 12:24:31;;;;;;;7.15;3.45;;;13.70;81.40;;;;;;5015753;28;20053;-74
2022/11/18 12:27:26;;;;;;;12.93;5.68;;;13.60;81.40;;;;;;5019472;28;20109;-73
2022/11/18 12:29:54;;;;;;;11.73;3.85;;;13.60;81.40;;;;;;5016148;28;20037;-74
2022/11/18 12:32:41;;;;;;;7.72;3.08;;;13.60;81.40;;;;;;5010905;28;20028;-75
2022/11/18 12:35:12;;;;;;;7.97;3.33;;;13.60;83.10;;;;;;5011766;28;20061;-75
2022/11/18 12:37:51;;;;;;;11.68;4.00;;;13.70;82.20;;;;;;5013044;28;20474;-75
2022/11/18 12:40:46;;;;;;;11.18;5.07;;;13.60;82.00;;;;;;5007332;28;21618;-74
2022/11/18 12:43:47;;;;;;;6.40;2.10;;;13.70;82.10;;;;;;5010106;28;20439;-75
2022/11/18 12:46:34;;;;;;;6.45;3.38;;;13.70;83.30;;;;;;5012856;28;20040;-75
2022/11/18 12:49:21;;;;;;;10.45;4.32;;;13.70;82.40;;;;;;5014669;28;20058;-74
2022/11/18 12:51:50;;;;;;;10.77;4.35;;;13.70;82.10;;;;;;5021580;28;20076;-75
2022/11/18 12:54:43;;;;;;;12.40;4.95;;;13.60;81.90;;;;;;5027830;28;20132;-74
2022/11/18 12:57:27;;;;;;;10.88;5.63;;;13.60;82.20;;;;;;5022825;28;20030;-75
2022/11/18 12:59:53;;;;;;;9.43;3.63;;;13.60;82.50;;;;;;5011376;28;20099;-74
2022/11/18 13:02:23;;;;;;;16.33;4.97;;;13.50;82.60;;;;;;5027024;28;20463;-74
2022/11/18 13:05:22;;;;;;;;;;;13.50;82.60;;;;;;5015270;28;20413;-74
2022/11/18 13:08:17;;;;;;;8.48;4.55;;;13.40;82.70;;;;;;5008949;28;19996;-74
2022/11/18 13:10:43;;;;;;;10.75;4.63;;;13.30;82.40;;;;;;5014143;28;20061;-74
2022/11/18 13:13:26;;;;;;;10.45;5.47;;;13.30;82.80;;;;;;5026638;28;20026;-74
2022/11/18 13:18:52;;;;;;;8.35;3.95;;;13.30;83.00;;;;;;5020822;28;20107;-73
2022/11/18 13:24:16;;;;;;;8.57;3.70;;;13.20;83.20;;;;;;5026777;28;20095;-74
2022/11/18 13:26:44;;;;;;;12.50;5.50;;;13.20;83.30;;;;;;5013963;28;20018;-73
2022/11/18 13:29:34;;;;;;;9.23;4.43;;;13.20;83.70;;;;;;5022624;28;20022;-74
2022/11/18 13:32:07;;;;;;;11.80;3.95;;;13.20;83.60;;;;;;5015668;28;20112;-75
2022/11/18 13:34:43;;;;;;;12.48;4.00;;;13.20;83.60;;;;;;5021294;28;20025;-75
2022/11/18 13:37:26;;;;;;;13.77;4.78;;;13.20;83.80;;;;;;5027799;28;20447;-75